LGR888 HEAZ-HEAZ
Flight info
| Callsign | LGR888 |
|---|---|
| Flight time | 0h 21m |
| Altitude | 2500 |
| Route | 300954N0312120E DCT 304852N0303617E 311132N0295640E 310559N0293414E 292340N0302346E 294955N0305837E 300001N0312443E |
| Aircraft | C172/L-SFG/C |
Departure
| Time | 2026-05-09 09:55 |
|---|---|
| Airport | Almaza Air Force Base (HEAZ) |
Arrival
| Time | 2026-05-09 10:17 |
|---|---|
| Airport | Almaza Air Force Base (HEAZ) |
| Time | Latitude | Longitude | Altitude | Speed | Heading |
|---|---|---|---|---|---|
| 2026-05-09 09:49 | 30.09281 | 31.35159 | 246 ft | 0 kts | 38° |
| 2026-05-09 09:52 | 30.09281 | 31.35152 | 258 ft | 5 kts | 15° |
| 2026-05-09 09:52 | 30.09369 | 31.35090 | 381 ft | 35 kts | 295° |
| 2026-05-09 09:52 | 30.09444 | 31.34620 | 441 ft | 71 kts | 269° |
| 2026-05-09 09:53 | 30.09348 | 31.34020 | 561 ft | 82 kts | 245° |
| 2026-05-09 09:53 | 30.09153 | 31.33433 | 760 ft | 77 kts | 246° |
| 2026-05-09 09:53 | 30.08909 | 31.32755 | 716 ft | 102 kts | 245° |
| 2026-05-09 09:53 | 30.08633 | 31.31968 | 738 ft | 106 kts | 245° |
| 2026-05-09 09:54 | 30.08374 | 31.31151 | 737 ft | 108 kts | 256° |
| 2026-05-09 09:54 | 30.08360 | 31.30282 | 726 ft | 106 kts | 273° |
| 2026-05-09 09:54 | 30.08409 | 31.29422 | 747 ft | 105 kts | 278° |
| 2026-05-09 09:54 | 30.08659 | 31.28651 | 722 ft | 101 kts | 297° |
| 2026-05-09 09:55 | 30.08941 | 31.27911 | 751 ft | 97 kts | 291° |
| 2026-05-09 09:55 | 30.09103 | 31.27149 | 798 ft | 97 kts | 283° |
| 2026-05-09 09:55 | 30.09239 | 31.26390 | 819 ft | 96 kts | 283° |
| 2026-05-09 09:55 | 30.09331 | 31.25622 | 871 ft | 97 kts | 270° |
| 2026-05-09 09:56 | 30.09295 | 31.24837 | 920 ft | 97 kts | 270° |
| 2026-05-09 09:56 | 30.09233 | 31.24052 | 965 ft | 97 kts | 269° |
| 2026-05-09 09:56 | 30.09125 | 31.23290 | 1002 ft | 97 kts | 265° |
| 2026-05-09 09:56 | 30.09005 | 31.22520 | 1051 ft | 97 kts | 265° |
| 2026-05-09 09:57 | 30.08881 | 31.21743 | 1102 ft | 98 kts | 262° |
| 2026-05-09 09:57 | 30.08694 | 31.20976 | 1154 ft | 98 kts | 258° |
| 2026-05-09 09:57 | 30.08417 | 31.20255 | 1206 ft | 100 kts | 235° |
| 2026-05-09 09:57 | 30.07983 | 31.19617 | 1260 ft | 101 kts | 226° |
| 2026-05-09 09:58 | 30.07469 | 31.19068 | 1299 ft | 101 kts | 217° |
| 2026-05-09 09:58 | 30.06922 | 31.18546 | 1351 ft | 102 kts | 217° |
| 2026-05-09 09:58 | 30.06371 | 31.18019 | 1397 ft | 102 kts | 217° |
| 2026-05-09 09:58 | 30.05825 | 31.17499 | 1443 ft | 102 kts | 217° |
| 2026-05-09 09:59 | 30.05270 | 31.16967 | 1494 ft | 101 kts | 217° |
| 2026-05-09 09:59 | 30.04721 | 31.16441 | 1540 ft | 101 kts | 217° |
| 2026-05-09 09:59 | 30.04173 | 31.15917 | 1583 ft | 101 kts | 217° |
| 2026-05-09 09:59 | 30.03623 | 31.15392 | 1624 ft | 101 kts | 217° |
| 2026-05-09 10:00 | 30.03077 | 31.14875 | 1665 ft | 102 kts | 217° |
| 2026-05-09 10:00 | 30.02527 | 31.14356 | 1710 ft | 102 kts | 217° |
| 2026-05-09 10:00 | 30.01949 | 31.13874 | 1757 ft | 102 kts | 206° |
| 2026-05-09 10:00 | 30.01336 | 31.13481 | 1687 ft | 95 kts | 192° |
| 2026-05-09 10:01 | 30.00802 | 31.13204 | 1484 ft | 81 kts | 181° |
| 2026-05-09 10:01 | 30.00115 | 31.13087 | 836 ft | 113 kts | 170° |
| 2026-05-09 10:01 | 29.99442 | 31.13094 | 734 ft | 74 kts | 168° |
| 2026-05-09 10:01 | 29.99021 | 31.13107 | 722 ft | 52 kts | 191° |
| 2026-05-09 10:02 | 29.98716 | 31.13190 | 649 ft | 41 kts | 179° |
| 2026-05-09 10:02 | 29.98524 | 31.13323 | 565 ft | 30 kts | 180° |
| 2026-05-09 10:02 | 29.98331 | 31.13444 | 486 ft | 33 kts | 195° |
| 2026-05-09 10:02 | 29.98135 | 31.13459 | 485 ft | 26 kts | 325° |
| 2026-05-09 10:03 | 29.98128 | 31.13373 | 338 ft | 6 kts | 57° |
| 2026-05-09 10:03 | 29.98174 | 31.13428 | 292 ft | 13 kts | 156° |
| 2026-05-09 10:03 | 29.98176 | 31.13535 | 205 ft | 11 kts | 195° |
| 2026-05-09 10:03 | 29.98109 | 31.13560 | 164 ft | 7 kts | 292° |
| 2026-05-09 10:04 | 29.98126 | 31.13524 | 156 ft | 4 kts | 248° |
| 2026-05-09 10:04 | 29.98136 | 31.13524 | 142 ft | 2 kts | 325° |
| 2026-05-09 10:04 | 29.98151 | 31.13479 | 155 ft | 9 kts | 263° |
| 2026-05-09 10:04 | 29.98143 | 31.13417 | 156 ft | 1 kts | 169° |
| 2026-05-09 10:05 | 29.98144 | 31.13417 | 156 ft | 0 kts | 160° |
| 2026-05-09 10:07 | 29.98247 | 31.13452 | 301 ft | 40 kts | 20° |
| 2026-05-09 10:07 | 29.98716 | 31.13691 | 264 ft | 96 kts | 27° |
| 2026-05-09 10:07 | 29.99425 | 31.13772 | 261 ft | 114 kts | 356° |
| 2026-05-09 10:07 | 30.00238 | 31.13622 | 234 ft | 119 kts | 353° |
| 2026-05-09 10:08 | 30.01030 | 31.13510 | 340 ft | 110 kts | 359° |
| 2026-05-09 10:08 | 30.01782 | 31.13442 | 518 ft | 102 kts | 357° |
| 2026-05-09 10:08 | 30.02342 | 31.13310 | 1031 ft | 69 kts | 12° |
| 2026-05-09 10:08 | 30.02954 | 31.13413 | 1027 ft | 95 kts | 6° |
| 2026-05-09 10:09 | 30.03562 | 31.13484 | 1380 ft | 79 kts | 7° |
| 2026-05-09 10:09 | 30.04170 | 31.13652 | 1379 ft | 97 kts | 13° |
| 2026-05-09 10:09 | 30.04818 | 31.13820 | 1430 ft | 89 kts | 15° |
| 2026-05-09 10:09 | 30.05357 | 31.14111 | 1479 ft | 88 kts | 27° |
| 2026-05-09 10:10 | 30.05895 | 31.14227 | 1607 ft | 82 kts | 348° |
| 2026-05-09 10:10 | 30.06260 | 31.13636 | 1562 ft | 107 kts | 279° |
| 2026-05-09 10:10 | 30.05833 | 31.12963 | 1490 ft | 116 kts | 191° |
| 2026-05-09 10:10 | 30.05199 | 31.13257 | 1436 ft | 90 kts | 109° |
| 2026-05-09 10:11 | 30.05076 | 31.13963 | 1161 ft | 102 kts | 69° |
| 2026-05-09 10:11 | 30.05408 | 31.14656 | 872 ft | 106 kts | 57° |
| 2026-05-09 10:11 | 30.05481 | 31.15497 | 720 ft | 100 kts | 79° |
| 2026-05-09 10:11 | 30.05550 | 31.16260 | 677 ft | 90 kts | 66° |
| 2026-05-09 10:12 | 30.05761 | 31.16929 | 592 ft | 89 kts | 59° |
| 2026-05-09 10:12 | 30.06004 | 31.17596 | 494 ft | 90 kts | 58° |
| 2026-05-09 10:12 | 30.06182 | 31.18284 | 435 ft | 85 kts | 61° |
| 2026-05-09 10:12 | 30.06303 | 31.18899 | 484 ft | 80 kts | 72° |
| 2026-05-09 10:13 | 30.06305 | 31.19545 | 462 ft | 83 kts | 86° |
| 2026-05-09 10:13 | 30.06215 | 31.20208 | 406 ft | 87 kts | 87° |
| 2026-05-09 10:13 | 30.06165 | 31.20920 | 300 ft | 93 kts | 78° |
| 2026-05-09 10:13 | 30.06243 | 31.21638 | 316 ft | 87 kts | 75° |
| 2026-05-09 10:14 | 30.06234 | 31.22361 | 275 ft | 91 kts | 84° |
| 2026-05-09 10:14 | 30.06216 | 31.23067 | 302 ft | 90 kts | 79° |
| 2026-05-09 10:14 | 30.06255 | 31.23788 | 276 ft | 90 kts | 74° |
| 2026-05-09 10:14 | 30.06332 | 31.24506 | 315 ft | 84 kts | 77° |
| 2026-05-09 10:15 | 30.06277 | 31.25139 | 358 ft | 86 kts | 89° |
| 2026-05-09 10:15 | 30.06132 | 31.25870 | 338 ft | 95 kts | 92° |
| 2026-05-09 10:15 | 30.05908 | 31.26594 | 385 ft | 95 kts | 98° |
| 2026-05-09 10:15 | 30.05782 | 31.27375 | 380 ft | 90 kts | 85° |
| 2026-05-09 10:16 | 30.05629 | 31.28117 | 383 ft | 98 kts | 95° |
| 2026-05-09 10:16 | 30.05432 | 31.28795 | 668 ft | 74 kts | 109° |
| 2026-05-09 10:16 | 30.04983 | 31.29106 | 869 ft | 80 kts | 134° |
| 2026-05-09 10:16 | 30.04603 | 31.29529 | 942 ft | 61 kts | 90° |
| 2026-05-09 10:17 | 30.04572 | 31.29969 | 651 ft | 53 kts | 47° |
| 2026-05-09 10:17 | 30.04725 | 31.30253 | 547 ft | 27 kts | 36° |
| 2026-05-09 10:17 | 30.04805 | 31.30383 | 496 ft | 19 kts | 44° |
| 2026-05-09 10:17 | 30.04854 | 31.30552 | 330 ft | 12 kts | 64° |
| 2026-05-09 10:18 | 30.04886 | 31.30627 | 281 ft | 13 kts | 92° |
| 2026-05-09 10:18 | 30.04906 | 31.30658 | 264 ft | 0 kts | 99° |
| 2026-05-09 10:19 | 30.04906 | 31.30657 | 264 ft | 0 kts | 99° |
| 2026-05-09 10:19 | 30.04906 | 31.30658 | 264 ft | 0 kts | 99° |
| 2026-05-09 10:19 | 30.04902 | 31.30665 | 279 ft | 7 kts | 97° |
| 2026-05-09 10:19 | 30.04934 | 31.30906 | 351 ft | 55 kts | 48° |
| 2026-05-09 10:20 | 30.05390 | 31.31098 | 361 ft | 85 kts | 0° |
| 2026-05-09 10:20 | 30.05961 | 31.31214 | 454 ft | 85 kts | 18° |
| 2026-05-09 10:20 | 30.06517 | 31.31567 | 474 ft | 92 kts | 36° |
| 2026-05-09 10:20 | 30.06935 | 31.32137 | 553 ft | 90 kts | 49° |
| 2026-05-09 10:21 | 30.07437 | 31.32645 | 541 ft | 96 kts | 37° |
| 2026-05-09 10:21 | 30.07953 | 31.33154 | 548 ft | 99 kts | 42° |
| 2026-05-09 10:21 | 30.08417 | 31.33722 | 467 ft | 96 kts | 68° |
| 2026-05-09 10:21 | 30.08803 | 31.34305 | 491 ft | 84 kts | 50° |
| 2026-05-09 10:22 | 30.08849 | 31.34824 | 669 ft | 54 kts | 95° |
| 2026-05-09 10:22 | 30.08717 | 31.35167 | 564 ft | 46 kts | 103° |
| 2026-05-09 10:22 | 30.08713 | 31.35419 | 423 ft | 33 kts | 76° |
| 2026-05-09 10:22 | 30.08911 | 31.35667 | 320 ft | 44 kts | 71° |
| 2026-05-09 10:23 | 30.09115 | 31.35882 | 294 ft | 41 kts | 69° |
| 2026-05-09 10:23 | 30.09239 | 31.36065 | 349 ft | 19 kts | 100° |
| 2026-05-09 10:23 | 30.09244 | 31.36249 | 360 ft | 18 kts | 128° |
| 2026-05-09 10:23 | 30.09221 | 31.36338 | 381 ft | 3 kts | 131° |
| 2026-05-09 10:24 | 30.09170 | 31.36350 | 396 ft | 16 kts | 160° |
| 2026-05-09 10:24 | 30.09103 | 31.36365 | 404 ft | 8 kts | 44° |
| 2026-05-09 10:24 | 30.08962 | 31.36371 | 417 ft | 26 kts | 201° |
| 2026-05-09 10:24 | 30.08786 | 31.36364 | 394 ft | 12 kts | 153° |
| 2026-05-09 10:25 | 30.08777 | 31.36387 | 399 ft | 3 kts | 115° |
| 2026-05-09 10:25 | 30.08774 | 31.36394 | 380 ft | 0 kts | 136° |
| 2026-05-09 10:25 | 30.08773 | 31.36394 | 380 ft | 0 kts | 116° |
| 2026-05-09 10:25 | 30.08773 | 31.36393 | 380 ft | 0 kts | 99° |
| 2026-05-09 10:26 | 30.08773 | 31.36394 | 380 ft | 0 kts | 89° |